createdAt,value
2022-11-06T00:00:12.453Z,0.47
2022-11-06T00:02:19.374Z,0.54
2022-11-06T00:03:18.437Z,0.57
2022-11-06T00:04:18.504Z,0.49
2022-11-06T00:05:19.131Z,0.44
2022-11-06T00:06:19.557Z,0.49
2022-11-06T00:07:19.663Z,0.47
2022-11-06T00:09:21.618Z,0.5
2022-11-06T00:10:21.717Z,0.52
2022-11-06T00:11:21.932Z,0.51
2022-11-06T00:12:22.253Z,0.58
2022-11-06T00:13:22.464Z,0.59
2022-11-06T00:14:22.983Z,0.61
2022-11-06T00:15:23.333Z,0.57
2022-11-06T00:16:24.221Z,0.54
2022-11-06T00:17:23.922Z,0.58
2022-11-06T00:18:26.481Z,0.58
2022-11-06T00:19:24.753Z,0.51
2022-11-06T00:20:26.004Z,0.53
2022-11-06T00:21:27.231Z,0.53
2022-11-06T00:22:25.492Z,0.49
2022-11-06T00:23:26.013Z,0.52
2022-11-06T00:24:26.534Z,0.54
2022-11-06T00:25:26.642Z,0.55
2022-11-06T00:26:29.301Z,0.53
2022-11-06T00:27:27.496Z,0.55
2022-11-06T00:28:27.681Z,0.61
2022-11-06T00:29:28.092Z,0.64
2022-11-06T00:30:28.401Z,0.65
2022-11-06T00:31:31.594Z,0.6
2022-11-06T00:32:29.137Z,0.63
2022-11-06T00:33:29.670Z,0.59
2022-11-06T00:34:29.972Z,0.58
2022-11-06T00:35:30.402Z,0.59
2022-11-06T00:36:31.213Z,0.63
2022-11-06T00:37:30.920Z,0.61
2022-11-06T00:38:31.222Z,0.57
2022-11-06T00:39:31.539Z,0.59
2022-11-06T00:40:32.373Z,0.64
2022-11-06T00:41:32.375Z,0.58
2022-11-06T00:42:32.797Z,0.58
2022-11-06T00:43:33.812Z,0.61
2022-11-06T00:44:33.430Z,0.59
2022-11-06T00:45:33.732Z,0.6
2022-11-06T00:46:34.166Z,0.61
2022-11-06T00:47:34.407Z,0.61
2022-11-06T00:48:35.602Z,0.56
2022-11-06T00:49:35.094Z,0.61
2022-11-06T00:50:35.412Z,0.66
2022-11-06T00:51:37.141Z,0.7
2022-11-06T00:52:36.134Z,0.74
2022-11-06T00:53:36.689Z,0.7
2022-11-06T00:54:36.753Z,0.65
2022-11-06T00:55:37.167Z,0.65
2022-11-06T00:56:37.479Z,0.59
2022-11-06T00:57:37.712Z,0.54
2022-11-06T00:58:39.045Z,0.55
2022-11-06T00:59:38.547Z,0.52
2022-11-06T01:00:38.844Z,0.56
2022-11-06T01:01:42.314Z,0.57
2022-11-06T01:02:40.219Z,0.62
2022-11-06T01:03:41.532Z,0.62
2022-11-06T01:04:40.943Z,0.62
2022-11-06T01:05:41.133Z,0.57
2022-11-06T01:06:44.023Z,0.51
2022-11-06T01:07:41.973Z,0.51
2022-11-06T01:08:42.485Z,0.49
2022-11-06T01:09:42.496Z,0.54
2022-11-06T01:10:42.708Z,0.52
2022-11-06T01:12:11.881Z,0.55
2022-11-06T01:12:43.735Z,0.53
2022-11-06T01:13:45.285Z,0.45
2022-11-06T01:14:44.673Z,0.5
2022-11-06T01:15:44.984Z,0.51
2022-11-06T01:16:45.914Z,0.5
2022-11-06T01:17:45.508Z,0.48
2022-11-06T01:18:46.864Z,0.51
2022-11-06T01:19:46.284Z,0.45
2022-11-06T01:20:46.456Z,0.46
2022-11-06T01:21:48.516Z,0.49
2022-11-06T01:22:47.401Z,0.5
2022-11-06T01:23:51.912Z,0.52
2022-11-06T01:24:49.566Z,0.53
2022-11-06T01:27:19.742Z,0.62
2022-11-06T01:27:52.910Z,0.64
2022-11-06T01:28:53.784Z,0.64
2022-11-06T01:29:53.606Z,0.59
2022-11-06T01:30:54.103Z,0.55
2022-11-06T01:31:54.204Z,0.54
2022-11-06T01:32:54.623Z,0.61
2022-11-06T01:33:56.585Z,0.6
2022-11-06T01:34:55.280Z,0.6
2022-11-06T01:35:55.567Z,0.56
2022-11-06T01:36:55.984Z,0.54
2022-11-06T01:37:56.290Z,0.6
2022-11-06T01:38:58.045Z,0.65
2022-11-06T01:39:57.124Z,0.65
2022-11-06T01:40:57.345Z,0.63
2022-11-06T01:41:57.763Z,0.61
2022-11-06T01:42:57.981Z,0.67
2022-11-06T01:46:06.373Z,0.6
2022-11-06T01:48:12.921Z,0.62
2022-11-06T01:49:17.252Z,0.63
2022-11-06T01:50:16.951Z,0.63
2022-11-06T01:51:16.041Z,0.63
2022-11-06T01:52:16.565Z,0.61
2022-11-06T01:53:16.455Z,0.61
2022-11-06T01:54:17.082Z,0.58
2022-11-06T01:56:21.602Z,0.63
2022-11-06T01:57:20.889Z,0.61
2022-11-06T01:58:23.065Z,0.65
2022-11-06T01:59:25.115Z,0.66
2022-11-06T02:00:22.864Z,0.66
2022-11-06T02:01:23.375Z,0.62
2022-11-06T02:02:24.385Z,0.59
2022-11-06T02:03:23.820Z,0.6
2022-11-06T02:04:28.935Z,0.62
2022-11-06T02:05:26.780Z,0.64
2022-11-06T02:06:27.303Z,0.64
2022-11-06T02:07:27.205Z,0.69
2022-11-06T02:08:27.631Z,0.72
2022-11-06T02:09:30.298Z,0.72
2022-11-06T02:10:29.172Z,0.69
2022-11-06T02:11:28.783Z,0.68
2022-11-06T02:16:57.374Z,0.77
2022-11-06T02:19:04.552Z,0.72
2022-11-06T02:20:05.572Z,0.76
2022-11-06T02:29:22.843Z,0.78
2022-11-06T02:30:20.394Z,0.79
2022-11-06T02:31:26.841Z,0.78
2022-11-06T02:33:35.469Z,0.82
2022-11-06T02:34:36.092Z,0.8
2022-11-06T02:35:38.646Z,0.8
2022-11-06T02:36:43.783Z,0.78
2022-11-06T02:37:44.691Z,0.81
2022-11-06T02:38:48.610Z,0.83
2022-11-06T02:39:49.122Z,0.86
2022-11-06T02:40:54.253Z,0.84
2022-11-06T02:41:53.639Z,0.86
2022-11-06T02:42:55.591Z,0.86
2022-11-06T02:43:56.311Z,0.84
2022-11-06T02:44:57.548Z,0.84
2022-11-06T02:46:01.153Z,0.86
2022-11-06T02:47:04.323Z,0.86
2022-11-06T02:48:03.111Z,0.9
2022-11-06T02:49:09.962Z,0.87
2022-11-06T02:50:10.186Z,0.86
2022-11-06T02:51:05.687Z,0.89
2022-11-06T02:52:11.962Z,0.89
2022-11-06T02:53:10.002Z,0.89
2022-11-06T02:54:09.583Z,0.89
2022-11-06T02:57:19.653Z,0.95
2022-11-06T02:58:24.158Z,0.97
2022-11-06T03:00:26.539Z,0.93
2022-11-06T03:09:50.540Z,1.06
2022-11-06T03:12:01.004Z,1.05
2022-11-06T03:12:59.489Z,1.03
2022-11-06T03:23:34.354Z,1.13
2022-11-06T03:42:15.232Z,1.26
2022-11-06T03:43:16.382Z,1.26
2022-11-06T03:44:17.495Z,1.25
2022-11-06T03:45:20.077Z,1.25
2022-11-06T03:46:21.191Z,1.29
2022-11-06T03:47:31.495Z,1.28
2022-11-06T03:49:36.056Z,1.29
2022-11-06T03:50:30.641Z,1.34
2022-11-06T03:51:38.529Z,1.37
2022-11-06T03:52:38.353Z,1.37
2022-11-06T03:54:44.384Z,1.39
2022-11-06T03:56:51.884Z,1.36
2022-11-06T03:57:57.330Z,1.36
2022-11-06T03:58:50.449Z,1.33
2022-11-06T03:59:59.063Z,1.34
2022-11-06T04:00:54.063Z,1.34
2022-11-06T04:01:55.833Z,1.38
2022-11-06T04:02:57.592Z,1.4
2022-11-06T04:05:03.113Z,1.4
2022-11-06T04:06:10.686Z,1.43
2022-11-06T04:07:10.591Z,1.39
2022-11-06T04:08:10.004Z,1.4
2022-11-06T04:09:12.542Z,1.43
2022-11-06T04:10:12.037Z,1.45
2022-11-06T04:11:14.020Z,1.42
2022-11-06T04:12:15.634Z,1.42
2022-11-06T04:13:13.391Z,1.43
2022-11-06T04:14:17.699Z,1.37
2022-11-06T04:15:20.185Z,1.37
2022-11-06T04:16:19.043Z,1.37
2022-11-06T04:17:20.371Z,1.36
2022-11-06T04:18:19.912Z,1.36
2022-11-06T04:19:21.002Z,1.39
2022-11-06T04:20:22.129Z,1.4
2022-11-06T04:26:37.121Z,1.43
2022-11-06T04:45:31.021Z,1.57
2022-11-06T04:47:25.287Z,1.56
2022-11-06T04:48:25.302Z,1.57
2022-11-06T04:49:27.142Z,1.54
2022-11-06T04:50:27.252Z,1.57
2022-11-06T04:51:30.235Z,1.55
2022-11-06T04:52:28.804Z,1.57
2022-11-06T04:53:30.965Z,1.58
2022-11-06T04:54:29.433Z,1.54
2022-11-06T04:55:30.470Z,1.57
2022-11-06T04:56:35.049Z,1.57
2022-11-06T04:57:33.250Z,1.56
2022-11-06T04:58:33.451Z,1.6
2022-11-06T04:59:36.433Z,1.53
2022-11-06T05:00:34.909Z,1.54
2022-11-06T05:01:34.901Z,1.58
2022-11-06T05:02:35.033Z,1.62
2022-11-06T05:03:35.134Z,1.61
2022-11-06T05:04:35.535Z,1.62
2022-11-06T05:05:36.252Z,1.64
2022-11-06T05:06:36.261Z,1.61
2022-11-06T05:07:36.675Z,1.63
2022-11-06T05:08:37.613Z,1.62
2022-11-06T05:09:37.213Z,1.61
2022-11-06T05:10:38.084Z,1.6
2022-11-06T05:11:38.184Z,1.63
2022-11-06T05:12:38.441Z,1.62
2022-11-06T05:13:38.867Z,1.66
2022-11-06T05:14:39.303Z,1.66
2022-11-06T05:15:39.610Z,1.64
2022-11-06T05:16:40.034Z,1.65
2022-11-06T05:17:40.235Z,1.69
2022-11-06T05:18:40.543Z,1.67
2022-11-06T05:19:41.172Z,1.62
2022-11-06T05:20:41.375Z,1.67
2022-11-06T05:21:41.691Z,1.69
2022-11-06T05:22:42.413Z,1.67
2022-11-06T05:23:42.511Z,1.66
2022-11-06T05:24:42.736Z,1.7
2022-11-06T05:25:43.764Z,1.74
2022-11-06T05:26:43.457Z,1.74
2022-11-06T05:27:43.673Z,1.74
2022-11-06T05:28:44.317Z,1.74
2022-11-06T05:29:44.704Z,1.7
2022-11-06T05:30:45.952Z,1.7
2022-11-06T05:31:45.246Z,1.7
2022-11-06T05:32:45.659Z,1.69
2022-11-06T05:33:45.973Z,1.69
2022-11-06T05:34:46.190Z,1.69
2022-11-06T05:35:46.689Z,1.7
2022-11-06T05:36:47.016Z,1.68
2022-11-06T05:37:47.958Z,1.7
2022-11-06T05:38:47.750Z,1.7
2022-11-06T05:39:48.264Z,1.73
2022-11-06T05:40:48.263Z,1.75
2022-11-06T05:41:48.900Z,1.73
2022-11-06T05:42:49.192Z,1.75
2022-11-06T05:43:49.512Z,1.79
2022-11-06T05:44:49.837Z,1.8
2022-11-06T05:45:50.143Z,1.8
2022-11-06T05:46:50.578Z,1.81
2022-11-06T05:47:50.665Z,1.83
2022-11-06T05:48:51.192Z,1.78
2022-11-06T05:49:51.700Z,1.78
2022-11-06T05:50:51.921Z,1.77
2022-11-06T05:51:52.228Z,1.81
2022-11-06T05:52:52.847Z,1.85
2022-11-06T05:53:53.071Z,1.84
2022-11-06T05:54:54.000Z,1.85
2022-11-06T05:55:53.685Z,1.89
2022-11-06T05:56:54.005Z,1.85
2022-11-06T05:57:54.409Z,1.8
2022-11-06T05:58:54.833Z,1.84
2022-11-06T05:59:55.161Z,1.88
2022-11-06T06:00:56.390Z,1.88
2022-11-06T06:01:56.416Z,1.84
2022-11-06T06:02:56.326Z,1.85
2022-11-06T06:03:56.402Z,1.82
2022-11-06T06:04:56.812Z,1.87
2022-11-06T06:05:57.345Z,1.86
2022-11-06T06:06:57.655Z,1.87
2022-11-06T06:07:58.063Z,1.88
2022-11-06T06:08:58.380Z,1.86
2022-11-06T06:09:58.819Z,1.85
2022-11-06T06:10:58.901Z,1.84
2022-11-06T06:11:59.530Z,1.87
2022-11-06T06:12:59.647Z,1.84
2022-11-06T06:14:01.287Z,1.87
2022-11-06T06:15:00.576Z,1.87
2022-11-06T06:16:04.166Z,1.88
2022-11-06T06:17:01.618Z,1.9
2022-11-06T06:18:02.116Z,1.94
2022-11-06T06:19:02.547Z,1.95
2022-11-06T06:20:02.647Z,1.97
2022-11-06T06:21:02.988Z,1.96
2022-11-06T06:22:03.159Z,1.95
2022-11-06T06:23:06.402Z,1.91
2022-11-06T06:24:07.595Z,1.86
2022-11-06T06:25:17.420Z,1.9
2022-11-06T06:26:08.937Z,1.88
2022-11-06T06:27:09.247Z,1.91
2022-11-06T06:28:09.475Z,1.91
2022-11-06T06:29:10.009Z,1.92
2022-11-06T06:30:11.518Z,1.92
2022-11-06T06:31:11.628Z,1.97
2022-11-06T06:32:11.021Z,1.99
2022-11-06T06:33:11.337Z,1.97
2022-11-06T06:34:11.676Z,1.97
2022-11-06T06:35:12.071Z,1.98
2022-11-06T06:36:12.484Z,1.98
2022-11-06T06:37:16.470Z,2
2022-11-06T06:38:17.720Z,2.02
2022-11-06T06:39:18.648Z,1.96
2022-11-06T06:40:18.459Z,1.97
2022-11-06T06:41:18.674Z,1.97
2022-11-06T06:42:18.865Z,2.01
2022-11-06T06:43:19.497Z,2.03
2022-11-06T06:44:19.718Z,2.03
2022-11-06T06:45:22.990Z,2.04
2022-11-06T06:46:20.436Z,2.04
2022-11-06T06:47:20.854Z,2.01
2022-11-06T06:48:21.162Z,2.03
2022-11-06T06:49:21.686Z,2.05
2022-11-06T06:50:21.891Z,2.05
2022-11-06T06:51:24.130Z,2.04
2022-11-06T06:52:22.519Z,2.01
2022-11-06T06:53:23.060Z,2.06
2022-11-06T06:54:23.261Z,2.06
2022-11-06T06:55:24.075Z,2.04
2022-11-06T06:56:24.286Z,2.04
2022-11-06T06:57:24.197Z,2.06
2022-11-06T06:58:25.246Z,2.08
2022-11-06T06:59:25.230Z,2.11
2022-11-06T07:00:25.670Z,2.14
2022-11-06T07:01:26.142Z,2.15
2022-11-06T07:02:26.246Z,2.16
2022-11-06T07:03:26.688Z,2.18
2022-11-06T07:04:27.524Z,2.17
2022-11-06T07:05:27.211Z,2.15
2022-11-06T07:06:27.747Z,2.15
2022-11-06T07:07:28.049Z,2.17
2022-11-06T07:08:28.874Z,2.16
2022-11-06T07:09:31.437Z,2.17
2022-11-06T07:10:31.348Z,2.19
2022-11-06T07:11:29.318Z,2.19
2022-11-06T07:12:29.928Z,2.18
2022-11-06T07:13:35.533Z,2.19
2022-11-06T07:14:33.636Z,2.24
2022-11-06T07:15:34.339Z,2.22
2022-11-06T07:16:34.758Z,2.24
2022-11-06T07:17:34.767Z,2.25
2022-11-06T07:18:36.313Z,2.29
2022-11-06T07:19:35.598Z,2.3
2022-11-06T07:20:36.337Z,2.31
2022-11-06T07:21:36.637Z,2.34
2022-11-06T07:22:37.758Z,2.35
2022-11-06T07:23:37.785Z,2.36
2022-11-06T07:24:37.380Z,2.33
2022-11-06T07:25:37.990Z,2.38
2022-11-06T07:26:38.207Z,2.34
2022-11-06T07:27:38.415Z,2.37
2022-11-06T07:28:39.248Z,2.33
2022-11-06T07:29:39.046Z,2.35
2022-11-06T07:30:39.560Z,2.33
2022-11-06T07:31:39.883Z,2.36
2022-11-06T07:32:40.298Z,2.37
2022-11-06T07:33:40.890Z,2.4
2022-11-06T07:34:41.124Z,2.4
2022-11-06T07:35:41.337Z,2.41
2022-11-06T07:36:41.857Z,2.43
2022-11-06T07:37:42.080Z,2.42
2022-11-06T07:38:43.414Z,2.45
2022-11-06T07:39:42.795Z,2.49
2022-11-06T07:40:43.012Z,2.45
2022-11-06T07:41:43.424Z,2.49
2022-11-06T07:42:43.986Z,2.47
2022-11-06T07:43:44.386Z,2.51
2022-11-06T07:44:44.569Z,2.55
2022-11-06T07:45:44.889Z,2.52
2022-11-06T07:46:45.303Z,2.5
2022-11-06T07:47:45.624Z,2.5
2022-11-06T07:48:46.029Z,2.51
2022-11-06T07:49:50.690Z,2.51
2022-11-06T07:50:48.809Z,2.54
2022-11-06T07:51:49.430Z,2.56
2022-11-06T07:52:49.637Z,2.59
2022-11-06T07:53:50.059Z,2.59
2022-11-06T07:54:50.377Z,2.62
2022-11-06T07:55:51.619Z,2.66
2022-11-06T07:56:50.998Z,2.65
2022-11-06T07:57:51.418Z,2.64
2022-11-06T07:58:51.517Z,2.61
2022-11-06T07:59:52.048Z,2.64
2022-11-06T08:00:55.194Z,2.63
2022-11-06T08:01:53.049Z,2.64
2022-11-06T08:02:53.817Z,2.66
2022-11-06T08:03:53.610Z,2.64
2022-11-06T08:04:53.938Z,2.68
2022-11-06T08:05:54.232Z,2.66
2022-11-06T08:06:54.867Z,2.66
2022-11-06T08:07:58.037Z,2.66
2022-11-06T08:08:58.880Z,2.64
2022-11-06T08:09:56.927Z,2.69
2022-11-06T08:11:02.249Z,2.75
2022-11-06T08:12:00.006Z,2.76
2022-11-06T08:13:03.184Z,2.76
2022-11-06T08:14:01.345Z,2.75
2022-11-06T08:15:01.155Z,2.74
2022-11-06T08:16:06.607Z,2.73
2022-11-06T08:17:04.242Z,2.77
2022-11-06T08:18:05.674Z,2.73
2022-11-06T08:19:05.169Z,2.75
2022-11-06T08:20:06.507Z,2.75
2022-11-06T08:21:06.928Z,2.73
2022-11-06T08:22:06.109Z,2.76
2022-11-06T08:23:08.786Z,2.79
2022-11-06T08:24:06.946Z,2.84
2022-11-06T08:25:08.587Z,2.82
2022-11-06T08:26:07.679Z,2.74
2022-11-06T08:27:07.888Z,2.74
2022-11-06T08:28:09.226Z,2.78
2022-11-06T08:29:08.524Z,2.81
2022-11-06T08:30:10.158Z,2.75
2022-11-06T08:31:09.768Z,2.74
2022-11-06T08:32:09.901Z,2.71
2022-11-06T08:33:11.106Z,2.75
2022-11-06T08:34:10.496Z,2.78
2022-11-06T08:35:10.806Z,2.79
2022-11-06T08:36:11.119Z,2.86
2022-11-06T08:37:11.536Z,2.9
2022-11-06T08:38:12.906Z,2.9
2022-11-06T08:39:13.289Z,2.92
2022-11-06T08:40:13.197Z,2.93
2022-11-06T08:41:13.115Z,2.95
2022-11-06T08:42:13.450Z,3
2022-11-06T08:43:14.144Z,3.03
2022-11-06T08:44:14.050Z,3
2022-11-06T08:45:14.454Z,3.05
2022-11-06T08:46:14.777Z,3.07
2022-11-06T08:47:15.191Z,3.11
2022-11-06T08:48:15.606Z,3.1
2022-11-06T08:49:15.826Z,3.12
2022-11-06T08:50:16.441Z,3.1
2022-11-06T08:51:16.649Z,3.12
2022-11-06T08:52:17.166Z,3.1
2022-11-06T08:53:18.291Z,3.11
2022-11-06T08:54:17.995Z,3.12
2022-11-06T08:55:18.099Z,3.17
2022-11-06T08:56:18.530Z,3.15
2022-11-06T08:57:20.065Z,3.19
2022-11-06T08:58:19.260Z,3.22
2022-11-06T08:59:19.667Z,3.24
2022-11-06T09:00:20.187Z,3.25
2022-11-06T09:01:20.469Z,3.23
2022-11-06T09:02:20.819Z,3.25
2022-11-06T09:03:21.138Z,3.19
2022-11-06T09:04:21.548Z,3.22
2022-11-06T09:05:21.789Z,3.22
2022-11-06T09:06:22.176Z,3.19
2022-11-06T09:07:22.504Z,3.23
2022-11-06T09:08:23.001Z,3.25
2022-11-06T09:09:23.422Z,3.26
2022-11-06T09:10:24.080Z,3.27
2022-11-06T09:11:24.057Z,3.3
2022-11-06T09:12:24.380Z,3.34
2022-11-06T09:13:24.991Z,3.35
2022-11-06T09:14:25.500Z,3.38
2022-11-06T09:15:25.710Z,3.39
2022-11-06T09:16:25.940Z,3.4
2022-11-06T09:17:26.338Z,3.4
2022-11-06T09:18:26.438Z,3.38
2022-11-06T09:19:27.174Z,3.32
2022-11-06T09:20:27.593Z,3.29
2022-11-06T09:21:28.111Z,3.37
2022-11-06T09:22:28.139Z,3.44
2022-11-06T09:23:28.647Z,3.45
2022-11-06T09:24:57.114Z,3.43
2022-11-06T09:25:32.547Z,3.33
2022-11-06T09:26:32.039Z,3.42
2022-11-06T09:27:32.653Z,3.46
2022-11-06T09:28:32.869Z,3.46
2022-11-06T09:29:33.075Z,3.48
2022-11-06T09:30:33.809Z,3.46
2022-11-06T09:31:33.810Z,3.5
2022-11-06T09:32:34.327Z,3.52
2022-11-06T09:33:35.047Z,3.55
2022-11-06T09:34:35.269Z,3.57
2022-11-06T09:35:36.602Z,3.61
2022-11-06T09:36:36.921Z,3.62
2022-11-06T09:37:36.000Z,3.62
2022-11-06T09:38:36.516Z,3.58
2022-11-06T09:39:37.234Z,3.58
2022-11-06T09:45:54.962Z,3.67
2022-11-06T09:46:56.025Z,3.68
2022-11-06T09:49:58.594Z,3.57
2022-11-06T09:53:18.204Z,3.59
2022-11-06T09:54:24.851Z,3.64
2022-11-06T09:56:20.258Z,3.67
2022-11-06T09:58:28.558Z,3.66
2022-11-06T09:59:26.949Z,3.7
2022-11-06T10:00:26.722Z,3.74
2022-11-06T10:03:40.609Z,3.7
2022-11-06T10:05:38.536Z,3.73
2022-11-06T10:06:37.417Z,3.7
2022-11-06T10:07:41.719Z,3.73
2022-11-06T10:08:42.751Z,3.76
2022-11-06T10:09:40.206Z,3.75
2022-11-06T10:25:20.929Z,3.96
2022-11-06T10:27:27.828Z,3.93
2022-11-06T10:30:24.877Z,3.99
2022-11-06T10:34:41.699Z,4
2022-11-06T10:36:50.114Z,4.02
2022-11-06T10:38:52.578Z,3.98
2022-11-06T10:39:50.946Z,3.99
2022-11-06T10:40:52.073Z,3.99
2022-11-06T10:45:02.549Z,4.09
2022-11-06T10:50:18.559Z,4.15
2022-11-06T10:58:39.189Z,4.24
2022-11-06T10:59:39.807Z,4.21
2022-11-06T11:00:40.322Z,4.27
2022-11-06T11:01:40.465Z,4.31
2022-11-06T11:02:45.671Z,4.29
2022-11-06T11:03:45.367Z,4.28
2022-11-06T11:04:43.539Z,4.33
2022-11-06T11:05:44.876Z,4.31
2022-11-06T11:06:44.267Z,4.27
2022-11-06T11:07:46.636Z,4.33
2022-11-06T11:08:50.122Z,4.32
2022-11-06T11:09:47.871Z,4.31
2022-11-06T11:11:00.932Z,4.36
2022-11-06T11:11:52.289Z,4.29
2022-11-06T11:12:54.847Z,4.35
2022-11-06T11:15:59.273Z,4.41
2022-11-06T11:24:17.548Z,4.33
2022-11-06T11:25:25.749Z,4.35
2022-11-06T11:26:27.189Z,4.4
2022-11-06T11:27:19.833Z,4.41
2022-11-06T11:28:29.868Z,4.36
2022-11-06T11:30:26.493Z,4.4
2022-11-06T11:32:30.199Z,4.49
2022-11-06T11:33:27.650Z,4.51
2022-11-06T11:34:30.947Z,4.5
2022-11-06T11:35:30.535Z,4.55
2022-11-06T11:38:31.566Z,4.5
2022-11-06T11:40:37.327Z,4.57
2022-11-06T11:41:34.667Z,4.56
2022-11-06T11:42:35.181Z,4.6
2022-11-06T11:43:35.605Z,4.58
2022-11-06T11:44:35.919Z,4.56
2022-11-06T11:45:36.222Z,4.53
2022-11-06T11:47:39.407Z,4.59
2022-11-06T11:49:40.350Z,4.57
2022-11-06T11:50:40.964Z,4.54
2022-11-06T11:51:44.659Z,4.54
2022-11-06T11:52:43.341Z,4.57
2022-11-06T11:53:43.032Z,4.56
2022-11-06T11:54:48.976Z,4.56
2022-11-06T11:55:49.493Z,4.58
2022-11-06T11:57:08.481Z,4.6
2022-11-06T11:57:53.315Z,4.58
2022-11-06T11:58:54.406Z,4.58
2022-11-06T12:02:00.974Z,4.66
2022-11-06T12:04:00.207Z,4.66
2022-11-06T12:05:08.534Z,4.6
2022-11-06T12:06:11.410Z,4.63
2022-11-06T12:07:07.280Z,4.63
2022-11-06T12:08:06.576Z,4.61
2022-11-06T12:09:05.358Z,4.64
2022-11-06T12:11:07.728Z,4.7
2022-11-06T12:12:07.017Z,4.7
2022-11-06T12:16:20.244Z,4.74
2022-11-06T12:19:24.468Z,4.75
2022-11-06T12:21:34.828Z,4.81
2022-11-06T12:22:37.906Z,4.75
2022-11-06T12:25:44.275Z,4.81
2022-11-06T12:27:47.251Z,4.78
2022-11-06T12:28:48.093Z,4.79
2022-11-06T12:29:54.637Z,4.82
2022-11-06T12:30:53.009Z,4.79
2022-11-06T12:34:16.948Z,4.73
2022-11-06T12:36:07.166Z,4.75
2022-11-06T12:42:07.037Z,4.7
2022-11-06T12:44:13.366Z,4.7
2022-11-06T12:45:14.418Z,4.68
2022-11-06T13:12:24.503Z,4.69
2022-11-06T13:17:30.805Z,4.72
2022-11-06T13:29:05.065Z,4.75
2022-11-06T13:31:09.650Z,4.7
2022-11-06T13:32:15.316Z,4.71
2022-11-06T13:34:18.821Z,4.72
2022-11-06T13:35:18.201Z,4.74
2022-11-06T13:36:17.809Z,4.76
2022-11-06T13:41:29.711Z,4.7
2022-11-06T13:44:32.088Z,4.74
2022-11-06T14:06:26.598Z,4.76
2022-11-06T14:07:29.886Z,4.78
2022-11-06T14:09:32.249Z,4.78
2022-11-06T14:11:38.203Z,4.77
2022-11-06T14:12:35.751Z,4.78
2022-11-06T14:13:36.480Z,4.79
2022-11-06T14:14:36.585Z,4.8
2022-11-06T14:15:39.161Z,4.8
2022-11-06T14:16:40.185Z,4.79
2022-11-06T14:17:37.636Z,4.81
2022-11-06T14:18:38.157Z,4.83
2022-11-06T14:19:39.285Z,4.82
2022-11-06T14:20:40.115Z,4.81
2022-11-06T14:22:42.067Z,4.75
2022-11-06T14:24:45.561Z,4.72
2022-11-06T14:26:50.397Z,4.75
2022-11-06T14:28:49.420Z,4.79
2022-11-06T14:31:11.491Z,4.81
2022-11-06T14:32:58.626Z,4.79
2022-11-06T14:34:00.984Z,4.81
2022-11-06T14:42:11.786Z,4.84
2022-11-06T14:45:22.147Z,4.81
2022-11-06T14:46:22.603Z,4.83
2022-11-06T14:51:29.474Z,4.87
2022-11-06T14:52:28.038Z,4.9
2022-11-06T14:53:33.478Z,4.89
2022-11-06T14:54:33.673Z,4.91
2022-11-06T14:56:37.680Z,4.89
2022-11-06T14:58:47.836Z,4.9
2022-11-06T14:59:42.306Z,4.91
2022-11-06T15:01:52.662Z,4.86
2022-11-06T15:02:45.863Z,4.86
2022-11-06T15:04:56.577Z,4.84
2022-11-06T15:05:52.371Z,4.86
2022-11-06T15:06:51.571Z,4.88
2022-11-06T15:08:06.017Z,4.88
2022-11-06T15:08:58.349Z,4.87
2022-11-06T15:09:56.108Z,4.86
2022-11-06T15:10:56.093Z,4.84
2022-11-06T15:11:59.388Z,4.86
2022-11-06T15:16:06.815Z,4.86
2022-11-06T15:17:11.194Z,4.88
2022-11-06T15:20:20.439Z,4.87
2022-11-06T15:25:29.070Z,4.9
2022-11-06T15:27:43.285Z,4.91
2022-11-06T15:29:37.287Z,4.93
2022-11-06T15:31:35.977Z,4.92
2022-11-06T15:32:38.948Z,4.88
2022-11-06T15:34:43.065Z,4.92
2022-11-06T15:35:41.119Z,4.92
2022-11-06T15:36:43.689Z,4.93
2022-11-06T15:37:52.900Z,4.94
2022-11-06T15:38:45.434Z,4.95
2022-11-06T15:40:01.021Z,4.92
2022-11-06T15:40:52.815Z,4.91
2022-11-06T15:41:51.186Z,4.89
2022-11-06T15:42:51.294Z,4.92
2022-11-06T15:43:53.355Z,4.91
2022-11-06T15:44:52.439Z,4.9
2022-11-06T15:46:57.991Z,4.91
2022-11-06T15:47:58.801Z,4.94
2022-11-06T15:52:06.406Z,4.91
2022-11-06T15:54:14.388Z,4.95
2022-11-06T15:56:19.337Z,4.97
2022-11-06T15:59:23.656Z,4.94
2022-11-06T16:00:26.948Z,4.92
2022-11-06T16:01:32.585Z,4.95
2022-11-06T16:02:25.310Z,4.95
2022-11-06T16:03:28.293Z,4.95
2022-11-06T16:04:26.056Z,4.92
2022-11-06T16:05:29.656Z,4.93
2022-11-06T16:06:27.608Z,4.95
2022-11-06T16:07:27.907Z,4.95
2022-11-06T16:08:31.218Z,4.96
2022-11-06T16:09:29.065Z,4.97
2022-11-06T16:10:29.880Z,4.95
2022-11-06T16:11:30.097Z,4.96
2022-11-06T16:12:30.508Z,4.94
2022-11-06T16:13:31.227Z,4.99
2022-11-06T16:14:30.728Z,4.97
2022-11-06T16:16:42.201Z,4.95
2022-11-06T16:17:44.005Z,4.95
2022-11-06T16:18:46.491Z,4.97
2022-11-06T16:19:47.761Z,4.96
2022-11-06T16:20:52.787Z,4.97
2022-11-06T16:22:52.209Z,4.92
2022-11-06T16:26:02.129Z,4.94
2022-11-06T16:28:02.045Z,4.96
2022-11-06T16:30:06.897Z,4.95
2022-11-06T16:32:08.928Z,4.96
2022-11-06T16:36:17.757Z,4.96
2022-11-06T16:42:36.446Z,5
2022-11-06T16:43:36.346Z,4.96
2022-11-06T16:44:47.315Z,4.97
2022-11-06T16:48:46.833Z,4.96
2022-11-06T16:49:53.530Z,4.99
2022-11-06T16:51:54.935Z,4.99
2022-11-06T16:52:55.140Z,5
2022-11-06T16:56:05.521Z,5.03
2022-11-06T17:01:20.473Z,5.02
2022-11-06T17:03:22.648Z,5.05
2022-11-06T17:04:23.779Z,5.07
2022-11-06T17:06:31.265Z,5.03
2022-11-06T17:07:29.028Z,5.02
2022-11-06T17:09:33.748Z,5.06
2022-11-06T17:11:32.643Z,5.08
2022-11-06T17:12:32.957Z,5.07
2022-11-06T17:13:33.367Z,5.1
2022-11-06T17:14:33.988Z,5.08
2022-11-06T17:15:34.307Z,5.08
2022-11-06T17:17:39.965Z,5.12
2022-11-06T17:18:39.647Z,5.08
2022-11-06T17:19:38.038Z,5.07
2022-11-06T17:20:38.527Z,5.09
2022-11-06T17:21:39.057Z,5.09
2022-11-06T17:22:39.474Z,5.08
2022-11-06T17:23:39.870Z,5.11
2022-11-06T17:24:40.197Z,5.1
2022-11-06T17:25:40.606Z,5.07
2022-11-06T17:27:43.688Z,5.08
2022-11-06T17:28:43.939Z,5.1
2022-11-06T17:29:44.329Z,5.11
2022-11-06T17:30:45.462Z,5.13
2022-11-06T17:31:45.160Z,5.11
2022-11-06T17:32:45.568Z,5.11
2022-11-06T17:33:46.613Z,5.12
2022-11-06T17:34:46.310Z,5.13
2022-11-06T17:35:48.158Z,5.13
2022-11-06T17:36:47.035Z,5.15
2022-11-06T17:37:47.465Z,5.15
2022-11-06T17:38:48.392Z,5.17
2022-11-06T17:39:48.801Z,5.18
2022-11-06T17:40:48.489Z,5.16
2022-11-06T17:41:48.709Z,5.17
2022-11-06T17:42:49.421Z,5.2
2022-11-06T17:43:49.542Z,5.17
2022-11-06T17:44:50.059Z,5.17
2022-11-06T17:45:50.488Z,5.2
2022-11-06T17:46:50.689Z,5.18
2022-11-06T17:47:51.211Z,5.21
2022-11-06T17:48:51.518Z,5.22
2022-11-06T17:49:52.048Z,5.18
2022-11-06T17:50:52.347Z,5.17
2022-11-06T17:51:52.755Z,5.17
2022-11-06T17:52:53.187Z,5.2
2022-11-06T17:53:53.296Z,5.21
2022-11-06T17:54:54.118Z,5.21
2022-11-06T17:55:54.230Z,5.23
2022-11-06T17:56:55.655Z,5.24
2022-11-06T17:57:54.858Z,5.24
2022-11-06T17:58:55.409Z,5.23
2022-11-06T17:59:55.895Z,5.19
2022-11-06T18:01:03.949Z,5.17
2022-11-06T18:01:57.634Z,5.21
2022-11-06T18:03:01.636Z,5.21
2022-11-06T18:03:59.596Z,5.21
2022-11-06T18:05:00.132Z,5.2
2022-11-06T18:06:00.538Z,5.24
2022-11-06T18:07:00.860Z,5.25
2022-11-06T18:08:01.268Z,5.25
2022-11-06T18:09:03.737Z,5.26
2022-11-06T18:10:02.309Z,5.28
2022-11-06T18:11:02.520Z,5.28
2022-11-06T18:12:08.252Z,5.3
2022-11-06T18:13:06.827Z,5.3
2022-11-06T18:14:06.122Z,5.31
2022-11-06T18:15:07.666Z,5.32
2022-11-06T18:17:09.109Z,5.27
2022-11-06T18:18:08.907Z,5.27
2022-11-06T18:19:11.070Z,5.32
2022-11-06T18:20:10.766Z,5.32
2022-11-06T18:21:10.060Z,5.28
2022-11-06T18:22:10.379Z,5.28
2022-11-06T18:23:10.679Z,5.33
2022-11-06T18:24:11.124Z,5.29
2022-11-06T18:25:11.717Z,5.29
2022-11-06T18:26:11.940Z,5.31
2022-11-06T18:27:12.242Z,5.31
2022-11-06T18:28:13.277Z,5.31
2022-11-06T18:29:14.098Z,5.32
2022-11-06T18:30:14.414Z,5.33
2022-11-06T18:31:14.202Z,5.33
2022-11-06T18:32:14.849Z,5.31
2022-11-06T18:33:15.478Z,5.33
2022-11-06T18:34:20.439Z,5.33
2022-11-06T18:35:18.541Z,5.34
2022-11-06T18:36:18.954Z,5.35
2022-11-06T18:37:19.277Z,5.35
2022-11-06T18:38:19.489Z,5.36
2022-11-06T18:39:20.207Z,5.35
2022-11-06T18:40:20.629Z,5.33
2022-11-06T18:41:21.957Z,5.36
2022-11-06T18:42:21.046Z,5.34
2022-11-06T18:43:21.668Z,5.32
2022-11-06T18:44:22.301Z,5.33
2022-11-06T18:45:22.506Z,5.33
2022-11-06T18:46:22.604Z,5.33
2022-11-06T18:47:23.337Z,5.34
2022-11-06T18:48:23.722Z,5.35
2022-11-06T18:49:23.858Z,5.37
2022-11-06T18:50:24.786Z,5.38
2022-11-06T18:51:35.207Z,5.38
2022-11-06T18:52:55.824Z,5.35
2022-11-06T18:53:31.088Z,5.38
2022-11-06T18:54:31.674Z,5.4
2022-11-06T18:55:33.425Z,5.4
2022-11-06T18:56:32.707Z,5.41
2022-11-06T18:57:32.819Z,5.4
2022-11-06T18:58:34.564Z,5.4
2022-11-06T18:59:33.651Z,5.39
2022-11-06T19:00:33.765Z,5.4
2022-11-06T19:01:34.910Z,5.41
2022-11-06T19:02:34.963Z,5.42
2022-11-06T19:03:36.651Z,5.39
2022-11-06T19:04:35.485Z,5.4